sensor_id;sensor_type;location;lat;lon;timestamp;temperature;humidity
72905;DHT22;61048;52.162;4.516;2022-12-29T00:00:19;15.70;66.50
72905;DHT22;61048;52.162;4.516;2022-12-29T00:02:47;15.70;66.70
72905;DHT22;61048;52.162;4.516;2022-12-29T00:05:14;15.80;66.70
72905;DHT22;61048;52.162;4.516;2022-12-29T00:07:41;15.80;66.70
72905;DHT22;61048;52.162;4.516;2022-12-29T00:10:08;15.80;66.70
72905;DHT22;61048;52.162;4.516;2022-12-29T00:12:35;15.80;66.70
72905;DHT22;61048;52.162;4.516;2022-12-29T00:15:19;15.80;66.80
72905;DHT22;61048;52.162;4.516;2022-12-29T00:18:07;15.80;66.80
72905;DHT22;61048;52.162;4.516;2022-12-29T00:20:34;15.80;66.70
72905;DHT22;61048;52.162;4.516;2022-12-29T00:23:20;15.80;66.80
72905;DHT22;61048;52.162;4.516;2022-12-29T00:26:10;15.80;66.80
72905;DHT22;61048;52.162;4.516;2022-12-29T00:28:56;15.80;66.80
72905;DHT22;61048;52.162;4.516;2022-12-29T00:31:40;15.80;66.80
72905;DHT22;61048;52.162;4.516;2022-12-29T00:34:26;15.80;66.80
72905;DHT22;61048;52.162;4.516;2022-12-29T00:37:11;15.70;66.80
72905;DHT22;61048;52.162;4.516;2022-12-29T00:39:37;15.80;66.80
72905;DHT22;61048;52.162;4.516;2022-12-29T00:42:22;15.80;66.80
72905;DHT22;61048;52.162;4.516;2022-12-29T00:45:07;15.80;66.80
72905;DHT22;61048;52.162;4.516;2022-12-29T00:47:34;15.80;66.80
72905;DHT22;61048;52.162;4.516;2022-12-29T00:50:02;15.80;66.80
72905;DHT22;61048;52.162;4.516;2022-12-29T00:52:28;15.70;66.80
72905;DHT22;61048;52.162;4.516;2022-12-29T00:54:55;15.80;66.80
72905;DHT22;61048;52.162;4.516;2022-12-29T00:57:22;15.70;66.80
72905;DHT22;61048;52.162;4.516;2022-12-29T00:59:49;15.80;66.80
72905;DHT22;61048;52.162;4.516;2022-12-29T01:02:16;15.70;66.80
72905;DHT22;61048;52.162;4.516;2022-12-29T01:04:42;15.70;66.80
72905;DHT22;61048;52.162;4.516;2022-12-29T01:07:11;15.70;66.90
72905;DHT22;61048;52.162;4.516;2022-12-29T01:09:38;15.80;66.80
72905;DHT22;61048;52.162;4.516;2022-12-29T01:12:22;15.80;66.90
72905;DHT22;61048;52.162;4.516;2022-12-29T01:15:03;15.80;67.00
72905;DHT22;61048;52.162;4.516;2022-12-29T01:17:30;15.80;66.90
72905;DHT22;61048;52.162;4.516;2022-12-29T01:19:57;15.80;66.90
72905;DHT22;61048;52.162;4.516;2022-12-29T01:22:25;15.80;66.90
72905;DHT22;61048;52.162;4.516;2022-12-29T01:24:52;15.80;66.90
72905;DHT22;61048;52.162;4.516;2022-12-29T01:27:19;15.80;66.80
72905;DHT22;61048;52.162;4.516;2022-12-29T01:29:46;15.80;66.90
72905;DHT22;61048;52.162;4.516;2022-12-29T01:32:13;15.80;66.90
72905;DHT22;61048;52.162;4.516;2022-12-29T01:34:40;15.80;66.80
72905;DHT22;61048;52.162;4.516;2022-12-29T01:37:07;15.80;66.80
72905;DHT22;61048;52.162;4.516;2022-12-29T01:39:35;15.80;66.80
72905;DHT22;61048;52.162;4.516;2022-12-29T01:42:02;15.80;66.80
72905;DHT22;61048;52.162;4.516;2022-12-29T01:44:52;15.80;66.80
72905;DHT22;61048;52.162;4.516;2022-12-29T01:47:26;15.80;66.70
72905;DHT22;61048;52.162;4.516;2022-12-29T01:49:57;15.80;66.70
72905;DHT22;61048;52.162;4.516;2022-12-29T01:52:27;15.80;66.70
72905;DHT22;61048;52.162;4.516;2022-12-29T01:54:58;15.80;66.60
72905;DHT22;61048;52.162;4.516;2022-12-29T01:57:29;15.80;66.70
72905;DHT22;61048;52.162;4.516;2022-12-29T02:00:00;15.80;66.70
72905;DHT22;61048;52.162;4.516;2022-12-29T02:02:29;15.80;66.70
72905;DHT22;61048;52.162;4.516;2022-12-29T02:04:58;15.80;66.60
72905;DHT22;61048;52.162;4.516;2022-12-29T02:07:26;15.80;66.60
72905;DHT22;61048;52.162;4.516;2022-12-29T02:09:56;15.80;66.60
72905;DHT22;61048;52.162;4.516;2022-12-29T02:12:23;15.80;66.60
72905;DHT22;61048;52.162;4.516;2022-12-29T02:14:54;15.80;66.60
72905;DHT22;61048;52.162;4.516;2022-12-29T02:17:31;15.80;66.50
72905;DHT22;61048;52.162;4.516;2022-12-29T02:20:42;15.80;66.60
72905;DHT22;61048;52.162;4.516;2022-12-29T02:23:30;15.80;66.50
72905;DHT22;61048;52.162;4.516;2022-12-29T02:26:16;15.80;66.50
72905;DHT22;61048;52.162;4.516;2022-12-29T02:29:12;15.80;66.40
72905;DHT22;61048;52.162;4.516;2022-12-29T02:31:48;15.80;66.50
72905;DHT22;61048;52.162;4.516;2022-12-29T02:34:21;15.80;66.20
72905;DHT22;61048;52.162;4.516;2022-12-29T02:36:59;15.80;66.20
72905;DHT22;61048;52.162;4.516;2022-12-29T02:39:34;15.80;66.30
72905;DHT22;61048;52.162;4.516;2022-12-29T02:42:10;15.80;66.30
72905;DHT22;61048;52.162;4.516;2022-12-29T02:44:47;15.80;66.30
72905;DHT22;61048;52.162;4.516;2022-12-29T02:47:24;15.80;66.30
72905;DHT22;61048;52.162;4.516;2022-12-29T02:49:59;15.80;66.30
72905;DHT22;61048;52.162;4.516;2022-12-29T02:52:31;15.80;66.20
72905;DHT22;61048;52.162;4.516;2022-12-29T02:55:00;15.80;66.20
72905;DHT22;61048;52.162;4.516;2022-12-29T02:57:31;15.80;66.20
72905;DHT22;61048;52.162;4.516;2022-12-29T03:00:02;15.80;66.10
72905;DHT22;61048;52.162;4.516;2022-12-29T03:02:45;15.70;66.20
72905;DHT22;61048;52.162;4.516;2022-12-29T03:05:24;15.70;66.00
72905;DHT22;61048;52.162;4.516;2022-12-29T03:07:58;15.80;66.10
72905;DHT22;61048;52.162;4.516;2022-12-29T03:10:34;15.70;65.90
72905;DHT22;61048;52.162;4.516;2022-12-29T03:13:07;15.70;66.00
72905;DHT22;61048;52.162;4.516;2022-12-29T03:16:01;15.70;66.00
72905;DHT22;61048;52.162;4.516;2022-12-29T03:18:47;15.70;66.00
72905;DHT22;61048;52.162;4.516;2022-12-29T03:21:22;15.70;66.00
72905;DHT22;61048;52.162;4.516;2022-12-29T03:24:12;15.70;65.90
72905;DHT22;61048;52.162;4.516;2022-12-29T03:26:49;15.70;65.90
72905;DHT22;61048;52.162;4.516;2022-12-29T03:29:48;15.70;66.00
72905;DHT22;61048;52.162;4.516;2022-12-29T03:32:23;15.70;66.00
72905;DHT22;61048;52.162;4.516;2022-12-29T03:34:52;15.70;66.00
72905;DHT22;61048;52.162;4.516;2022-12-29T03:37:23;15.70;66.10
72905;DHT22;61048;52.162;4.516;2022-12-29T03:39:52;15.70;66.10
72905;DHT22;61048;52.162;4.516;2022-12-29T03:42:20;15.70;66.10
72905;DHT22;61048;52.162;4.516;2022-12-29T03:44:53;15.70;66.20
72905;DHT22;61048;52.162;4.516;2022-12-29T03:47:21;15.70;66.20
72905;DHT22;61048;52.162;4.516;2022-12-29T03:49:49;15.70;66.20
72905;DHT22;61048;52.162;4.516;2022-12-29T03:52:17;15.70;66.20
72905;DHT22;61048;52.162;4.516;2022-12-29T03:54:45;15.70;66.20
72905;DHT22;61048;52.162;4.516;2022-12-29T03:57:12;15.70;66.20
72905;DHT22;61048;52.162;4.516;2022-12-29T03:59:39;15.70;66.20
72905;DHT22;61048;52.162;4.516;2022-12-29T04:02:06;15.70;66.20
72905;DHT22;61048;52.162;4.516;2022-12-29T04:04:33;15.70;66.20
72905;DHT22;61048;52.162;4.516;2022-12-29T04:06:59;15.70;66.20
72905;DHT22;61048;52.162;4.516;2022-12-29T04:09:28;15.70;66.10
72905;DHT22;61048;52.162;4.516;2022-12-29T04:11:55;15.70;66.00
72905;DHT22;61048;52.162;4.516;2022-12-29T04:14:22;15.70;66.00
72905;DHT22;61048;52.162;4.516;2022-12-29T04:16:49;15.70;65.80
72905;DHT22;61048;52.162;4.516;2022-12-29T04:19:16;15.70;65.90
72905;DHT22;61048;52.162;4.516;2022-12-29T04:21:42;15.70;66.00
72905;DHT22;61048;52.162;4.516;2022-12-29T04:24:08;15.70;65.80
72905;DHT22;61048;52.162;4.516;2022-12-29T04:26:37;15.70;65.60
72905;DHT22;61048;52.162;4.516;2022-12-29T04:29:03;15.70;65.60
72905;DHT22;61048;52.162;4.516;2022-12-29T04:31:30;15.60;65.60
72905;DHT22;61048;52.162;4.516;2022-12-29T04:33:57;15.70;65.60
72905;DHT22;61048;52.162;4.516;2022-12-29T04:36:25;15.60;65.50
72905;DHT22;61048;52.162;4.516;2022-12-29T04:38:52;15.70;65.30
72905;DHT22;61048;52.162;4.516;2022-12-29T04:41:19;15.70;65.30
72905;DHT22;61048;52.162;4.516;2022-12-29T04:43:47;15.70;65.20
72905;DHT22;61048;52.162;4.516;2022-12-29T04:46:14;15.60;65.30
72905;DHT22;61048;52.162;4.516;2022-12-29T04:48:41;15.60;65.30
72905;DHT22;61048;52.162;4.516;2022-12-29T04:51:08;15.60;65.20
72905;DHT22;61048;52.162;4.516;2022-12-29T04:53:35;15.60;65.30
72905;DHT22;61048;52.162;4.516;2022-12-29T04:56:02;15.60;65.10
72905;DHT22;61048;52.162;4.516;2022-12-29T04:58:29;15.60;65.10
72905;DHT22;61048;52.162;4.516;2022-12-29T05:00:57;15.60;65.10
72905;DHT22;61048;52.162;4.516;2022-12-29T05:03:24;15.60;65.20
72905;DHT22;61048;52.162;4.516;2022-12-29T05:05:53;15.60;65.10
72905;DHT22;61048;52.162;4.516;2022-12-29T05:08:20;15.60;65.20
72905;DHT22;61048;52.162;4.516;2022-12-29T05:10:47;15.60;65.10
72905;DHT22;61048;52.162;4.516;2022-12-29T05:13:16;15.60;65.20
72905;DHT22;61048;52.162;4.516;2022-12-29T05:15:47;15.60;65.20
72905;DHT22;61048;52.162;4.516;2022-12-29T05:18:15;15.60;65.10
72905;DHT22;61048;52.162;4.516;2022-12-29T05:20:42;15.60;65.20
72905;DHT22;61048;52.162;4.516;2022-12-29T05:23:09;15.60;65.00
72905;DHT22;61048;52.162;4.516;2022-12-29T05:25:36;15.60;65.10
72905;DHT22;61048;52.162;4.516;2022-12-29T05:28:03;15.50;65.20
72905;DHT22;61048;52.162;4.516;2022-12-29T05:30:30;15.60;65.00
72905;DHT22;61048;52.162;4.516;2022-12-29T05:32:57;15.50;65.10
72905;DHT22;61048;52.162;4.516;2022-12-29T05:35:25;15.50;65.20
72905;DHT22;61048;52.162;4.516;2022-12-29T05:37:52;15.50;65.30
72905;DHT22;61048;52.162;4.516;2022-12-29T05:40:18;15.50;65.30
72905;DHT22;61048;52.162;4.516;2022-12-29T05:42:45;15.50;65.20
72905;DHT22;61048;52.162;4.516;2022-12-29T05:45:12;15.50;65.30
72905;DHT22;61048;52.162;4.516;2022-12-29T05:47:39;15.60;65.20
72905;DHT22;61048;52.162;4.516;2022-12-29T05:50:06;15.50;65.30
72905;DHT22;61048;52.162;4.516;2022-12-29T05:52:35;15.50;65.30
72905;DHT22;61048;52.162;4.516;2022-12-29T05:55:01;15.50;65.40
72905;DHT22;61048;52.162;4.516;2022-12-29T05:57:28;15.60;65.50
72905;DHT22;61048;52.162;4.516;2022-12-29T05:59:55;15.60;65.60
72905;DHT22;61048;52.162;4.516;2022-12-29T06:02:22;15.60;65.60
72905;DHT22;61048;52.162;4.516;2022-12-29T06:04:49;15.60;65.60
72905;DHT22;61048;52.162;4.516;2022-12-29T06:07:16;15.60;65.60
72905;DHT22;61048;52.162;4.516;2022-12-29T06:09:44;15.60;65.70
72905;DHT22;61048;52.162;4.516;2022-12-29T06:12:11;15.60;65.70
72905;DHT22;61048;52.162;4.516;2022-12-29T06:14:38;15.60;65.90
72905;DHT22;61048;52.162;4.516;2022-12-29T06:17:05;15.60;66.10
72905;DHT22;61048;52.162;4.516;2022-12-29T06:19:32;15.70;67.20
72905;DHT22;61048;52.162;4.516;2022-12-29T06:21:59;15.80;68.10
72905;DHT22;61048;52.162;4.516;2022-12-29T06:24:26;15.80;67.40
72905;DHT22;61048;52.162;4.516;2022-12-29T06:26:54;15.80;67.80
72905;DHT22;61048;52.162;4.516;2022-12-29T06:29:21;15.80;67.80
72905;DHT22;61048;52.162;4.516;2022-12-29T06:31:48;15.70;67.90
72905;DHT22;61048;52.162;4.516;2022-12-29T06:34:16;15.70;68.00
72905;DHT22;61048;52.162;4.516;2022-12-29T06:36:43;15.70;68.00
72905;DHT22;61048;52.162;4.516;2022-12-29T06:39:10;15.70;68.00
72905;DHT22;61048;52.162;4.516;2022-12-29T06:41:37;15.80;68.00
72905;DHT22;61048;52.162;4.516;2022-12-29T06:44:05;15.80;68.00
72905;DHT22;61048;52.162;4.516;2022-12-29T06:46:32;15.70;67.90
72905;DHT22;61048;52.162;4.516;2022-12-29T06:48:59;15.80;68.30
72905;DHT22;61048;52.162;4.516;2022-12-29T06:51:26;15.70;68.10
72905;DHT22;61048;52.162;4.516;2022-12-29T06:53:53;15.70;68.00
72905;DHT22;61048;52.162;4.516;2022-12-29T06:56:20;15.70;68.00
72905;DHT22;61048;52.162;4.516;2022-12-29T06:58:47;15.70;68.00
72905;DHT22;61048;52.162;4.516;2022-12-29T07:01:15;15.70;67.90
72905;DHT22;61048;52.162;4.516;2022-12-29T07:03:42;15.70;68.00
72905;DHT22;61048;52.162;4.516;2022-12-29T07:06:09;15.70;68.00
72905;DHT22;61048;52.162;4.516;2022-12-29T07:08:36;15.80;67.90
72905;DHT22;61048;52.162;4.516;2022-12-29T07:11:04;15.70;67.90
72905;DHT22;61048;52.162;4.516;2022-12-29T07:13:31;15.70;67.80
72905;DHT22;61048;52.162;4.516;2022-12-29T07:15:57;15.70;67.80
72905;DHT22;61048;52.162;4.516;2022-12-29T07:18:26;15.70;67.70
72905;DHT22;61048;52.162;4.516;2022-12-29T07:20:53;15.70;67.70
72905;DHT22;61048;52.162;4.516;2022-12-29T07:23:19;15.70;67.60
72905;DHT22;61048;52.162;4.516;2022-12-29T07:25:46;15.70;67.60
72905;DHT22;61048;52.162;4.516;2022-12-29T07:28:13;15.70;67.50
72905;DHT22;61048;52.162;4.516;2022-12-29T07:30:40;15.70;67.40
72905;DHT22;61048;52.162;4.516;2022-12-29T07:33:07;15.70;67.40
72905;DHT22;61048;52.162;4.516;2022-12-29T07:35:35;15.70;67.40
72905;DHT22;61048;52.162;4.516;2022-12-29T07:38:02;15.80;67.20
72905;DHT22;61048;52.162;4.516;2022-12-29T07:40:29;15.70;67.20
72905;DHT22;61048;52.162;4.516;2022-12-29T07:42:55;15.80;67.10
72905;DHT22;61048;52.162;4.516;2022-12-29T07:45:22;15.80;67.00
72905;DHT22;61048;52.162;4.516;2022-12-29T07:47:49;15.80;66.80
72905;DHT22;61048;52.162;4.516;2022-12-29T07:50:16;15.80;66.80
72905;DHT22;61048;52.162;4.516;2022-12-29T07:52:45;15.90;66.80
72905;DHT22;61048;52.162;4.516;2022-12-29T07:55:13;15.80;66.80
72905;DHT22;61048;52.162;4.516;2022-12-29T07:57:41;15.90;66.70
72905;DHT22;61048;52.162;4.516;2022-12-29T08:00:08;15.90;66.70
72905;DHT22;61048;52.162;4.516;2022-12-29T08:02:36;15.90;66.70
72905;DHT22;61048;52.162;4.516;2022-12-29T08:05:03;15.90;66.60
72905;DHT22;61048;52.162;4.516;2022-12-29T08:07:30;15.80;66.60
72905;DHT22;61048;52.162;4.516;2022-12-29T08:09:58;15.80;66.60
72905;DHT22;61048;52.162;4.516;2022-12-29T08:12:26;15.90;66.60
72905;DHT22;61048;52.162;4.516;2022-12-29T08:14:53;15.80;66.60
72905;DHT22;61048;52.162;4.516;2022-12-29T08:17:20;15.80;66.50
72905;DHT22;61048;52.162;4.516;2022-12-29T08:19:47;15.80;66.50
72905;DHT22;61048;52.162;4.516;2022-12-29T08:22:14;15.80;66.40
72905;DHT22;61048;52.162;4.516;2022-12-29T08:24:41;15.80;66.30
72905;DHT22;61048;52.162;4.516;2022-12-29T08:27:10;15.80;66.30
72905;DHT22;61048;52.162;4.516;2022-12-29T08:29:37;15.80;66.20
72905;DHT22;61048;52.162;4.516;2022-12-29T08:32:04;15.80;66.20
72905;DHT22;61048;52.162;4.516;2022-12-29T08:34:32;15.80;66.10
72905;DHT22;61048;52.162;4.516;2022-12-29T08:36:59;15.80;66.20
72905;DHT22;61048;52.162;4.516;2022-12-29T08:39:25;15.80;66.10
72905;DHT22;61048;52.162;4.516;2022-12-29T08:41:53;15.80;66.00
72905;DHT22;61048;52.162;4.516;2022-12-29T08:44:21;15.80;66.00
72905;DHT22;61048;52.162;4.516;2022-12-29T08:46:48;15.80;66.00
72905;DHT22;61048;52.162;4.516;2022-12-29T08:49:15;15.80;65.90
72905;DHT22;61048;52.162;4.516;2022-12-29T08:51:42;15.80;65.90
72905;DHT22;61048;52.162;4.516;2022-12-29T08:54:09;15.80;65.90
72905;DHT22;61048;52.162;4.516;2022-12-29T08:56:36;15.80;65.80
72905;DHT22;61048;52.162;4.516;2022-12-29T08:59:03;15.80;65.80
72905;DHT22;61048;52.162;4.516;2022-12-29T09:01:31;15.80;65.70
72905;DHT22;61048;52.162;4.516;2022-12-29T09:03:59;15.80;65.60
72905;DHT22;61048;52.162;4.516;2022-12-29T09:06:25;15.70;65.70
72905;DHT22;61048;52.162;4.516;2022-12-29T09:08:54;15.70;65.60
72905;DHT22;61048;52.162;4.516;2022-12-29T09:11:23;15.70;65.70
72905;DHT22;61048;52.162;4.516;2022-12-29T09:13:51;15.70;65.60
72905;DHT22;61048;52.162;4.516;2022-12-29T09:16:18;15.70;65.60
72905;DHT22;61048;52.162;4.516;2022-12-29T09:18:48;15.70;65.50
72905;DHT22;61048;52.162;4.516;2022-12-29T09:21:15;15.70;65.50
72905;DHT22;61048;52.162;4.516;2022-12-29T09:23:41;15.70;65.40
72905;DHT22;61048;52.162;4.516;2022-12-29T09:26:09;15.70;65.50
72905;DHT22;61048;52.162;4.516;2022-12-29T09:28:35;15.70;65.40
72905;DHT22;61048;52.162;4.516;2022-12-29T09:31:03;15.70;65.40
72905;DHT22;61048;52.162;4.516;2022-12-29T09:33:30;15.70;65.50
72905;DHT22;61048;52.162;4.516;2022-12-29T09:35:59;15.70;65.30
72905;DHT22;61048;52.162;4.516;2022-12-29T09:38:27;15.70;65.30
72905;DHT22;61048;52.162;4.516;2022-12-29T09:40:56;15.70;65.30
72905;DHT22;61048;52.162;4.516;2022-12-29T09:46:24;15.60;65.30
72905;DHT22;61048;52.162;4.516;2022-12-29T09:49:04;15.60;65.30
72905;DHT22;61048;52.162;4.516;2022-12-29T09:51:36;15.60;65.30
72905;DHT22;61048;52.162;4.516;2022-12-29T09:54:19;15.60;65.20
72905;DHT22;61048;52.162;4.516;2022-12-29T09:56:48;15.60;65.20
72905;DHT22;61048;52.162;4.516;2022-12-29T09:59:17;15.60;65.20
72905;DHT22;61048;52.162;4.516;2022-12-29T10:01:51;15.60;65.20
72905;DHT22;61048;52.162;4.516;2022-12-29T10:04:19;15.60;65.20
72905;DHT22;61048;52.162;4.516;2022-12-29T10:06:53;15.60;65.20
72905;DHT22;61048;52.162;4.516;2022-12-29T10:09:33;15.60;65.20
72905;DHT22;61048;52.162;4.516;2022-12-29T10:12:09;15.60;65.20
72905;DHT22;61048;52.162;4.516;2022-12-29T10:14:52;15.60;65.10
72905;DHT22;61048;52.162;4.516;2022-12-29T10:17:29;15.60;65.00
72905;DHT22;61048;52.162;4.516;2022-12-29T10:20:21;15.60;65.00
72905;DHT22;61048;52.162;4.516;2022-12-29T10:25:43;15.60;65.00
72905;DHT22;61048;52.162;4.516;2022-12-29T10:28:18;15.60;64.90
72905;DHT22;61048;52.162;4.516;2022-12-29T10:30:47;15.60;64.90
72905;DHT22;61048;52.162;4.516;2022-12-29T10:33:18;15.60;64.80
72905;DHT22;61048;52.162;4.516;2022-12-29T10:35:47;15.60;64.80
72905;DHT22;61048;52.162;4.516;2022-12-29T10:38:22;15.60;64.70
72905;DHT22;61048;52.162;4.516;2022-12-29T10:40:54;15.60;64.70
72905;DHT22;61048;52.162;4.516;2022-12-29T10:43:26;15.60;64.70
72905;DHT22;61048;52.162;4.516;2022-12-29T10:45:56;15.60;64.50
72905;DHT22;61048;52.162;4.516;2022-12-29T10:48:27;15.60;64.60
72905;DHT22;61048;52.162;4.516;2022-12-29T10:50:57;15.60;64.50
72905;DHT22;61048;52.162;4.516;2022-12-29T10:53:33;15.60;64.60
72905;DHT22;61048;52.162;4.516;2022-12-29T10:56:04;15.70;64.60
72905;DHT22;61048;52.162;4.516;2022-12-29T10:58:36;15.70;64.50
72905;DHT22;61048;52.162;4.516;2022-12-29T11:01:03;15.80;64.40
72905;DHT22;61048;52.162;4.516;2022-12-29T11:06:26;15.70;63.90
72905;DHT22;61048;52.162;4.516;2022-12-29T11:08:57;15.70;63.50
72905;DHT22;61048;52.162;4.516;2022-12-29T11:11:27;15.60;63.30
72905;DHT22;61048;52.162;4.516;2022-12-29T11:13:58;15.60;63.20
72905;DHT22;61048;52.162;4.516;2022-12-29T11:16:30;15.60;63.10
72905;DHT22;61048;52.162;4.516;2022-12-29T11:18:57;15.50;63.10
72905;DHT22;61048;52.162;4.516;2022-12-29T11:21:27;15.50;63.00
72905;DHT22;61048;52.162;4.516;2022-12-29T11:23:59;15.50;62.80
72905;DHT22;61048;52.162;4.516;2022-12-29T11:26:27;15.50;62.90
72905;DHT22;61048;52.162;4.516;2022-12-29T11:29:17;15.50;62.50
72905;DHT22;61048;52.162;4.516;2022-12-29T11:31:47;15.50;62.60
72905;DHT22;61048;52.162;4.516;2022-12-29T11:34:20;15.50;62.40
72905;DHT22;61048;52.162;4.516;2022-12-29T11:36:47;15.50;62.30
72905;DHT22;61048;52.162;4.516;2022-12-29T11:39:29;15.50;62.10
72905;DHT22;61048;52.162;4.516;2022-12-29T11:41:57;15.50;62.00
72905;DHT22;61048;52.162;4.516;2022-12-29T11:44:25;15.40;61.80
72905;DHT22;61048;52.162;4.516;2022-12-29T11:46:53;15.40;61.70
72905;DHT22;61048;52.162;4.516;2022-12-29T11:49:23;15.40;61.70
72905;DHT22;61048;52.162;4.516;2022-12-29T11:51:51;15.40;61.70
72905;DHT22;61048;52.162;4.516;2022-12-29T11:54:23;15.40;61.50
72905;DHT22;61048;52.162;4.516;2022-12-29T11:56:54;15.40;61.60
72905;DHT22;61048;52.162;4.516;2022-12-29T11:59:34;15.40;61.60
72905;DHT22;61048;52.162;4.516;2022-12-29T12:05:12;15.40;61.40
72905;DHT22;61048;52.162;4.516;2022-12-29T12:07:42;15.40;61.10
72905;DHT22;61048;52.162;4.516;2022-12-29T12:10:20;15.40;61.30
72905;DHT22;61048;52.162;4.516;2022-12-29T12:12:53;15.40;61.40
72905;DHT22;61048;52.162;4.516;2022-12-29T12:15:25;15.30;61.20
72905;DHT22;61048;52.162;4.516;2022-12-29T12:17:57;15.40;61.10
72905;DHT22;61048;52.162;4.516;2022-12-29T12:20:36;15.30;61.10
72905;DHT22;61048;52.162;4.516;2022-12-29T12:26:09;15.40;61.50
72905;DHT22;61048;52.162;4.516;2022-12-29T12:28:45;15.40;61.60
72905;DHT22;61048;52.162;4.516;2022-12-29T12:31:20;15.40;61.90
72905;DHT22;61048;52.162;4.516;2022-12-29T12:33:53;15.40;62.30
72905;DHT22;61048;52.162;4.516;2022-12-29T12:36:40;15.50;62.50
72905;DHT22;61048;52.162;4.516;2022-12-29T12:39:21;15.50;62.50
72905;DHT22;61048;52.162;4.516;2022-12-29T12:41:58;15.50;62.60
72905;DHT22;61048;52.162;4.516;2022-12-29T12:44:36;15.50;62.80
72905;DHT22;61048;52.162;4.516;2022-12-29T12:47:17;15.50;62.80
72905;DHT22;61048;52.162;4.516;2022-12-29T12:50:08;15.50;63.00
72905;DHT22;61048;52.162;4.516;2022-12-29T12:52:49;15.50;62.90
72905;DHT22;61048;52.162;4.516;2022-12-29T12:55:35;15.50;62.60
72905;DHT22;61048;52.162;4.516;2022-12-29T12:58:10;15.50;62.60
72905;DHT22;61048;52.162;4.516;2022-12-29T13:00:50;15.50;62.30
72905;DHT22;61048;52.162;4.516;2022-12-29T13:03:26;15.50;62.30
72905;DHT22;61048;52.162;4.516;2022-12-29T13:06:13;15.40;62.40
72905;DHT22;61048;52.162;4.516;2022-12-29T13:09:03;15.40;62.50
72905;DHT22;61048;52.162;4.516;2022-12-29T13:11:44;15.40;62.50
72905;DHT22;61048;52.162;4.516;2022-12-29T13:14:24;15.40;62.50
72905;DHT22;61048;52.162;4.516;2022-12-29T13:17:04;15.40;62.20
72905;DHT22;61048;52.162;4.516;2022-12-29T13:19:38;15.40;62.20
72905;DHT22;61048;52.162;4.516;2022-12-29T13:22:12;15.40;62.00
72905;DHT22;61048;52.162;4.516;2022-12-29T13:24:42;15.40;62.10
72905;DHT22;61048;52.162;4.516;2022-12-29T13:27:17;15.40;61.80
72905;DHT22;61048;52.162;4.516;2022-12-29T13:29:57;15.40;61.80
72905;DHT22;61048;52.162;4.516;2022-12-29T13:32:30;15.40;61.70
72905;DHT22;61048;52.162;4.516;2022-12-29T13:35:13;15.40;61.80
72905;DHT22;61048;52.162;4.516;2022-12-29T13:37:49;15.40;61.70
72905;DHT22;61048;52.162;4.516;2022-12-29T13:40:18;15.40;61.70
72905;DHT22;61048;52.162;4.516;2022-12-29T13:42:49;15.30;61.60
72905;DHT22;61048;52.162;4.516;2022-12-29T13:45:19;15.30;61.20
72905;DHT22;61048;52.162;4.516;2022-12-29T13:47:52;15.30;61.20
72905;DHT22;61048;52.162;4.516;2022-12-29T13:50:24;15.30;61.10
72905;DHT22;61048;52.162;4.516;2022-12-29T13:52:59;15.30;61.00
72905;DHT22;61048;52.162;4.516;2022-12-29T13:55:35;15.20;61.10
72905;DHT22;61048;52.162;4.516;2022-12-29T13:58:09;15.20;61.20
72905;DHT22;61048;52.162;4.516;2022-12-29T14:00:45;15.20;61.20
72905;DHT22;61048;52.162;4.516;2022-12-29T14:06:23;15.10;61.10
72905;DHT22;61048;52.162;4.516;2022-12-29T14:08:53;15.10;61.10
72905;DHT22;61048;52.162;4.516;2022-12-29T14:11:22;15.10;60.90
72905;DHT22;61048;52.162;4.516;2022-12-29T14:13:51;15.10;61.00
72905;DHT22;61048;52.162;4.516;2022-12-29T14:16:36;15.10;60.90
72905;DHT22;61048;52.162;4.516;2022-12-29T14:19:14;15.10;60.90
72905;DHT22;61048;52.162;4.516;2022-12-29T14:21:51;15.10;61.00
72905;DHT22;61048;52.162;4.516;2022-12-29T14:24:39;15.10;61.00
72905;DHT22;61048;52.162;4.516;2022-12-29T14:30:50;15.10;61.00
72905;DHT22;61048;52.162;4.516;2022-12-29T14:33:17;15.10;61.00
72905;DHT22;61048;52.162;4.516;2022-12-29T14:35:47;15.10;61.20
72905;DHT22;61048;52.162;4.516;2022-12-29T14:38:26;15.10;61.30
72905;DHT22;61048;52.162;4.516;2022-12-29T14:41:26;15.10;61.20
72905;DHT22;61048;52.162;4.516;2022-12-29T14:43:57;15.10;61.40
72905;DHT22;61048;52.162;4.516;2022-12-29T14:46:25;15.10;61.60
72905;DHT22;61048;52.162;4.516;2022-12-29T14:48:56;15.20;61.70
72905;DHT22;61048;52.162;4.516;2022-12-29T14:51:32;15.20;61.70
72905;DHT22;61048;52.162;4.516;2022-12-29T14:57:10;15.20;61.70
72905;DHT22;61048;52.162;4.516;2022-12-29T14:59:40;15.20;61.70
72905;DHT22;61048;52.162;4.516;2022-12-29T15:02:15;15.20;61.70
72905;DHT22;61048;52.162;4.516;2022-12-29T15:04:42;15.20;61.80
72905;DHT22;61048;52.162;4.516;2022-12-29T15:07:12;15.20;61.80
72905;DHT22;61048;52.162;4.516;2022-12-29T15:09:42;15.20;61.80
72905;DHT22;61048;52.162;4.516;2022-12-29T15:12:20;15.20;61.80
72905;DHT22;61048;52.162;4.516;2022-12-29T15:14:52;15.20;61.80
72905;DHT22;61048;52.162;4.516;2022-12-29T15:17:26;15.20;61.80
72905;DHT22;61048;52.162;4.516;2022-12-29T15:19:53;15.30;62.10
72905;DHT22;61048;52.162;4.516;2022-12-29T15:22:22;15.30;62.00
72905;DHT22;61048;52.162;4.516;2022-12-29T15:24:50;15.30;61.80
72905;DHT22;61048;52.162;4.516;2022-12-29T15:27:21;15.30;61.90
72905;DHT22;61048;52.162;4.516;2022-12-29T15:29:56;15.30;61.60
72905;DHT22;61048;52.162;4.516;2022-12-29T15:32:24;15.30;61.70
72905;DHT22;61048;52.162;4.516;2022-12-29T15:34:53;15.30;61.60
72905;DHT22;61048;52.162;4.516;2022-12-29T15:37:23;15.30;61.50
72905;DHT22;61048;52.162;4.516;2022-12-29T15:39:51;15.30;61.80
72905;DHT22;61048;52.162;4.516;2022-12-29T15:42:46;15.40;61.90
72905;DHT22;61048;52.162;4.516;2022-12-29T15:45:16;15.40;61.40
72905;DHT22;61048;52.162;4.516;2022-12-29T15:47:44;15.40;61.60
72905;DHT22;61048;52.162;4.516;2022-12-29T15:50:20;15.30;61.40
72905;DHT22;61048;52.162;4.516;2022-12-29T15:52:50;15.30;61.50
72905;DHT22;61048;52.162;4.516;2022-12-29T15:55:24;15.30;61.60
72905;DHT22;61048;52.162;4.516;2022-12-29T15:57:56;15.20;61.40
72905;DHT22;61048;52.162;4.516;2022-12-29T16:00:24;15.20;61.40
72905;DHT22;61048;52.162;4.516;2022-12-29T16:02:54;15.20;61.30
72905;DHT22;61048;52.162;4.516;2022-12-29T16:05:22;15.20;61.30
72905;DHT22;61048;52.162;4.516;2022-12-29T16:07:54;15.20;61.20
72905;DHT22;61048;52.162;4.516;2022-12-29T16:10:26;15.10;61.20
72905;DHT22;61048;52.162;4.516;2022-12-29T16:12:54;15.10;61.30
72905;DHT22;61048;52.162;4.516;2022-12-29T16:15:21;15.20;61.70
72905;DHT22;61048;52.162;4.516;2022-12-29T16:17:53;15.20;61.40
72905;DHT22;61048;52.162;4.516;2022-12-29T16:20:22;15.20;61.30